createdAt,value
2017-04-07T00:00:39.941Z,0
2017-04-07T00:01:40.278Z,0
2017-04-07T00:02:40.012Z,0
2017-04-07T00:03:40.048Z,0
2017-04-07T00:04:40.091Z,0
2017-04-07T00:05:40.138Z,0
2017-04-07T00:06:40.146Z,0
2017-04-07T00:07:40.187Z,0
2017-04-07T00:08:40.225Z,0
2017-04-07T00:09:40.561Z,0
2017-04-07T00:10:40.306Z,0
2017-04-07T00:11:40.633Z,0
2017-04-07T00:12:40.364Z,0
2017-04-07T00:13:40.400Z,0
2017-04-07T00:14:40.444Z,0
2017-04-07T00:15:40.483Z,0
2017-04-07T00:16:40.517Z,0
2017-04-07T00:17:40.549Z,0
2017-04-07T00:18:40.618Z,0
2017-04-07T00:19:41.220Z,0
2017-04-07T00:20:40.659Z,0
2017-04-07T00:21:40.688Z,0
2017-04-07T00:22:40.720Z,0
2017-04-07T00:23:40.757Z,0
2017-04-07T00:24:40.794Z,0
2017-04-07T00:25:40.832Z,0
2017-04-07T00:26:41.473Z,0
2017-04-07T00:27:40.906Z,0
2017-04-07T00:28:41.240Z,0
2017-04-07T00:29:41.270Z,0
2017-04-07T00:30:41.012Z,0
2017-04-07T00:31:41.345Z,0
2017-04-07T00:32:41.379Z,0
2017-04-07T00:33:41.416Z,0
2017-04-07T00:34:41.450Z,0
2017-04-07T00:35:41.189Z,0
2017-04-07T00:36:41.215Z,0
2017-04-07T00:37:41.860Z,0
2017-04-07T00:38:41.286Z,0
2017-04-07T00:39:41.327Z,0
2017-04-07T00:40:41.658Z,0
2017-04-07T00:41:41.694Z,0
2017-04-07T00:42:41.426Z,0
2017-04-07T00:43:41.460Z,0
2017-04-07T00:44:41.802Z,0
2017-04-07T00:45:41.836Z,0
2017-04-07T00:46:41.871Z,0
2017-04-07T00:47:41.605Z,0
2017-04-07T00:48:41.943Z,0
2017-04-07T00:49:42.278Z,0
2017-04-07T00:50:41.712Z,0
2017-04-07T00:51:41.745Z,0
2017-04-07T00:52:41.783Z,0
2017-04-07T00:53:41.817Z,0
2017-04-07T00:54:42.154Z,0
2017-04-07T00:55:41.887Z,0
2017-04-07T00:56:41.922Z,0
2017-04-07T00:57:41.956Z,0
2017-04-07T00:58:41.989Z,0
2017-04-07T00:59:42.031Z,0
2017-04-07T01:00:42.062Z,0
2017-04-07T01:01:42.410Z,0
2017-04-07T01:02:42.439Z,0
2017-04-07T01:03:42.464Z,0
2017-04-07T01:04:42.508Z,0
2017-04-07T01:05:42.538Z,0
2017-04-07T01:06:42.582Z,0
2017-04-07T01:07:42.313Z,0
2017-04-07T01:08:42.344Z,0
2017-04-07T01:09:42.681Z,0
2017-04-07T01:10:42.415Z,0
2017-04-07T01:11:42.751Z,0
2017-04-07T01:12:42.488Z,0
2017-04-07T01:13:42.517Z,0
2017-04-07T01:14:42.851Z,0
2017-04-07T01:15:42.891Z,0
2017-04-07T01:16:43.233Z,0
2017-04-07T01:17:42.968Z,0
2017-04-07T01:18:42.995Z,0
2017-04-07T01:19:43.041Z,0
2017-04-07T01:20:43.062Z,0
2017-04-07T01:21:43.109Z,0
2017-04-07T01:22:43.136Z,0
2017-04-07T01:23:43.175Z,0
2017-04-07T01:24:42.906Z,0
2017-04-07T01:25:43.260Z,0
2017-04-07T01:26:43.277Z,0
2017-04-07T01:27:43.013Z,0
2017-04-07T01:28:43.047Z,0
2017-04-07T01:29:43.988Z,0
2017-04-07T01:30:43.723Z,0
2017-04-07T01:31:43.338Z,0
2017-04-07T01:32:43.191Z,0
2017-04-07T01:33:43.221Z,0
2017-04-07T01:34:43.563Z,0
2017-04-07T01:35:43.591Z,0
2017-04-07T01:36:43.327Z,0
2017-04-07T01:37:43.665Z,0
2017-04-07T01:38:43.393Z,0
2017-04-07T01:39:43.431Z,0
2017-04-07T01:40:43.469Z,0
2017-04-07T01:41:43.506Z,0
2017-04-07T01:42:43.537Z,0
2017-04-07T01:43:43.576Z,0
2017-04-07T01:44:43.606Z,0
2017-04-07T01:45:43.647Z,0
2017-04-07T01:46:43.681Z,0
2017-04-07T01:47:44.012Z,0
2017-04-07T01:48:43.760Z,0
2017-04-07T01:49:44.088Z,0
2017-04-07T01:50:43.824Z,0
2017-04-07T01:51:44.153Z,0
2017-04-07T01:52:43.894Z,0
2017-04-07T01:53:43.921Z,0
2017-04-07T01:54:44.270Z,0
2017-04-07T01:55:44.607Z,0
2017-04-07T01:56:44.028Z,0
2017-04-07T01:57:44.365Z,0
2017-04-07T01:58:44.402Z,0
2017-04-07T01:59:44.744Z,0
2017-04-07T02:00:44.171Z,0
2017-04-07T02:01:44.510Z,0
2017-04-07T02:02:44.237Z,0
2017-04-07T02:03:44.585Z,0
2017-04-07T02:04:44.915Z,0
2017-04-07T02:05:44.954Z,0
2017-04-07T02:06:44.383Z,0
2017-04-07T02:07:44.424Z,0
2017-04-07T02:08:45.059Z,0
2017-04-07T02:09:44.788Z,0
2017-04-07T02:10:44.823Z,0
2017-04-07T02:11:44.553Z,0
2017-04-07T02:12:44.587Z,0
2017-04-07T02:13:44.934Z,0
2017-04-07T02:14:44.968Z,0
2017-04-07T02:15:45.002Z,0
2017-04-07T02:16:45.030Z,0
2017-04-07T02:17:44.802Z,0
2017-04-07T02:18:44.800Z,0
2017-04-07T02:19:45.150Z,0
2017-04-07T02:20:44.878Z,0
2017-04-07T02:21:45.212Z,0
2017-04-07T02:22:44.962Z,0
2017-04-07T02:23:44.984Z,0
2017-04-07T02:24:45.013Z,0
2017-04-07T02:25:45.062Z,0
2017-04-07T02:26:45.085Z,0
2017-04-07T02:27:45.117Z,0
2017-04-07T02:28:45.154Z,0
2017-04-07T02:29:45.495Z,0
2017-04-07T02:30:45.522Z,0
2017-04-07T02:31:45.269Z,0
2017-04-07T02:32:45.307Z,0
2017-04-07T02:33:45.935Z,0
2017-04-07T02:34:45.369Z,0
2017-04-07T02:35:45.704Z,0
2017-04-07T02:36:45.436Z,0
2017-04-07T02:37:45.472Z,0
2017-04-07T02:38:45.503Z,0
2017-04-07T02:39:45.855Z,0
2017-04-07T02:40:45.581Z,0
2017-04-07T02:41:45.918Z,0
2017-04-07T02:42:45.952Z,0
2017-04-07T02:43:45.676Z,0
2017-04-07T02:44:46.023Z,0
2017-04-07T02:45:45.758Z,0
2017-04-07T02:46:46.095Z,0
2017-04-07T02:47:45.819Z,0
2017-04-07T02:48:45.859Z,0
2017-04-07T02:49:45.891Z,0
2017-04-07T02:50:46.235Z,0
2017-04-07T02:51:45.961Z,0
2017-04-07T02:52:46.303Z,0
2017-04-07T02:53:46.031Z,0
2017-04-07T02:54:46.064Z,0
2017-04-07T02:55:46.102Z,0
2017-04-07T02:56:46.446Z,0
2017-04-07T02:57:46.176Z,0
2017-04-07T02:58:46.208Z,0
2017-04-07T02:59:46.242Z,0
2017-04-07T03:00:46.277Z,0
2017-04-07T03:01:46.312Z,0
2017-04-07T03:02:46.348Z,0
2017-04-07T03:03:46.376Z,0
2017-04-07T03:04:46.415Z,0
2017-04-07T03:05:46.752Z,0
2017-04-07T03:06:46.795Z,0
2017-04-07T03:07:46.821Z,0
2017-04-07T03:08:46.557Z,0
2017-04-07T03:09:46.614Z,0
2017-04-07T03:10:46.920Z,0
2017-04-07T03:11:46.661Z,0
2017-04-07T03:12:46.698Z,0
2017-04-07T03:13:46.723Z,0
2017-04-07T03:14:46.771Z,0
2017-04-07T03:15:47.403Z,0
2017-04-07T03:16:47.139Z,0
2017-04-07T03:17:47.168Z,0
2017-04-07T03:18:46.903Z,0
2017-04-07T03:19:47.552Z,0
2017-04-07T03:20:46.976Z,0
2017-04-07T03:21:47.614Z,0
2017-04-07T03:22:47.042Z,0
2017-04-07T03:23:47.074Z,0
2017-04-07T03:24:47.122Z,0
2017-04-07T03:25:47.146Z,0
2017-04-07T03:26:47.186Z,0
2017-04-07T03:27:47.217Z,0
2017-04-07T03:28:47.254Z,0
2017-04-07T03:29:47.594Z,0
2017-04-07T03:30:47.624Z,0
2017-04-07T03:31:47.364Z,0
2017-04-07T03:32:47.698Z,0
2017-04-07T03:33:47.728Z,0
2017-04-07T03:34:47.458Z,0
2017-04-07T03:35:47.488Z,0
2017-04-07T03:36:47.546Z,0
2017-04-07T03:37:47.561Z,0
2017-04-07T03:38:48.213Z,0
2017-04-07T03:39:47.933Z,0
2017-04-07T03:40:47.682Z,0
2017-04-07T03:41:47.702Z,0
2017-04-07T03:42:48.038Z,0
2017-04-07T03:43:47.768Z,0
2017-04-07T03:44:48.625Z,0
2017-04-07T03:45:47.841Z,0
2017-04-07T03:46:47.881Z,0
2017-04-07T03:47:47.908Z,0
2017-04-07T03:48:48.253Z,0
2017-04-07T03:49:47.974Z,0
2017-04-07T03:50:48.621Z,0
2017-04-07T03:51:48.356Z,0
2017-04-07T03:52:48.081Z,0
2017-04-07T03:53:48.126Z,0
2017-04-07T03:54:48.148Z,0
2017-04-07T03:55:48.492Z,0
2017-04-07T03:56:48.219Z,0
2017-04-07T03:57:48.282Z,0
2017-04-07T03:58:48.289Z,0
2017-04-07T03:59:48.631Z,0
2017-04-07T04:00:48.964Z,0
2017-04-07T04:01:48.400Z,0
2017-04-07T04:02:48.427Z,0
2017-04-07T04:03:48.767Z,0
2017-04-07T04:04:48.492Z,0
2017-04-07T04:05:48.837Z,0
2017-04-07T04:06:48.871Z,0
2017-04-07T04:07:48.607Z,0
2017-04-07T04:08:48.641Z,0
2017-04-07T04:09:48.970Z,0
2017-04-07T04:10:48.734Z,0
2017-04-07T04:11:49.047Z,0
2017-04-07T04:12:48.775Z,0
2017-04-07T04:13:49.110Z,0
2017-04-07T04:14:48.846Z,0
2017-04-07T04:15:48.874Z,0
2017-04-07T04:16:48.917Z,0
2017-04-07T04:17:48.947Z,0
2017-04-07T04:18:49.285Z,0
2017-04-07T04:19:49.019Z,0
2017-04-07T04:20:49.045Z,0
2017-04-07T04:21:49.084Z,0
2017-04-07T04:22:49.720Z,0
2017-04-07T04:23:49.452Z,0
2017-04-07T04:24:49.189Z,0
2017-04-07T04:25:49.539Z,0
2017-04-07T04:26:49.260Z,0
2017-04-07T04:27:49.288Z,0
2017-04-07T04:28:49.327Z,0
2017-04-07T04:29:49.355Z,0
2017-04-07T04:30:49.697Z,0
2017-04-07T04:31:49.425Z,0
2017-04-07T04:32:49.464Z,0
2017-04-07T04:33:49.505Z,0
2017-04-07T04:34:49.529Z,0
2017-04-07T04:35:49.566Z,0
2017-04-07T04:36:49.596Z,0
2017-04-07T04:37:49.668Z,0
2017-04-07T04:38:50.185Z,0
2017-04-07T04:39:49.698Z,5
2017-04-07T04:40:49.741Z,5
2017-04-07T04:41:49.767Z,5
2017-04-07T04:42:49.806Z,5
2017-04-07T04:43:50.139Z,5
2017-04-07T04:44:50.176Z,5
2017-04-07T04:45:50.232Z,5
2017-04-07T04:46:49.946Z,5
2017-04-07T04:47:49.978Z,5
2017-04-07T04:48:50.011Z,5
2017-04-07T04:49:50.352Z,5
2017-04-07T04:50:50.386Z,5
2017-04-07T04:51:50.124Z,10
2017-04-07T04:52:50.148Z,10
2017-04-07T04:53:50.485Z,10
2017-04-07T04:54:50.216Z,10
2017-04-07T04:55:50.255Z,10
2017-04-07T04:56:50.592Z,10
2017-04-07T04:57:50.620Z,10
2017-04-07T04:58:50.364Z,10
2017-04-07T04:59:50.388Z,10
2017-04-07T05:00:50.741Z,10
2017-04-07T05:01:50.473Z,10
2017-04-07T05:02:50.496Z,10
2017-04-07T05:03:56.071Z,10
2017-04-07T05:04:50.567Z,10
2017-04-07T05:05:50.600Z,10
2017-04-07T05:06:50.944Z,10
2017-04-07T05:07:50.675Z,10
2017-04-07T05:08:51.031Z,10
2017-04-07T05:09:50.744Z,10
2017-04-07T05:10:51.075Z,15
2017-04-07T05:11:51.110Z,15
2017-04-07T05:12:51.175Z,15
2017-04-07T05:13:51.171Z,15
2017-04-07T05:14:51.220Z,20
2017-04-07T05:15:51.244Z,20
2017-04-07T05:16:50.979Z,20
2017-04-07T05:17:51.010Z,20
2017-04-07T05:18:51.043Z,20
2017-04-07T05:19:51.082Z,20
2017-04-07T05:20:51.118Z,20
2017-04-07T05:21:51.452Z,20
2017-04-07T05:22:51.226Z,20
2017-04-07T05:23:51.219Z,25
2017-04-07T05:24:51.954Z,25
2017-04-07T05:25:51.893Z,25
2017-04-07T05:26:51.345Z,30
2017-04-07T05:27:51.666Z,25
2017-04-07T05:28:51.703Z,30
2017-04-07T05:29:52.030Z,35
2017-04-07T05:30:51.788Z,35
2017-04-07T05:31:51.807Z,35
2017-04-07T05:32:51.554Z,35
2017-04-07T05:33:51.566Z,40
2017-04-07T05:34:51.605Z,35
2017-04-07T05:35:51.938Z,35
2017-04-07T05:36:51.670Z,35
2017-04-07T05:37:51.701Z,35
2017-04-07T05:38:52.047Z,35
2017-04-07T05:39:51.774Z,30
2017-04-07T05:40:52.108Z,30
2017-04-07T05:41:51.850Z,30
2017-04-07T05:42:51.876Z,30
2017-04-07T05:43:52.221Z,30
2017-04-07T05:44:52.250Z,30
2017-04-07T05:45:52.283Z,30
2017-04-07T05:46:52.020Z,25
2017-04-07T05:47:52.051Z,25
2017-04-07T05:48:52.082Z,25
2017-04-07T05:49:52.143Z,25
2017-04-07T05:50:52.154Z,25
2017-04-07T05:51:52.190Z,25
2017-04-07T05:52:52.224Z,25
2017-04-07T05:53:52.572Z,25
2017-04-07T05:54:52.603Z,25
2017-04-07T05:55:52.638Z,25
2017-04-07T05:56:52.666Z,30
2017-04-07T05:57:52.404Z,25
2017-04-07T05:58:52.440Z,25
2017-04-07T05:59:52.506Z,25
2017-04-07T06:00:52.506Z,25
2017-04-07T06:01:53.875Z,30
2017-04-07T06:02:53.217Z,30
2017-04-07T06:03:52.604Z,30
2017-04-07T06:04:52.652Z,30
2017-04-07T06:05:52.678Z,30
2017-04-07T06:06:52.712Z,30
2017-04-07T06:07:52.744Z,30
2017-04-07T06:08:52.784Z,35
2017-04-07T06:09:53.115Z,35
2017-04-07T06:10:52.859Z,30
2017-04-07T06:11:52.879Z,30
2017-04-07T06:12:52.917Z,30
2017-04-07T06:13:53.295Z,30
2017-04-07T06:14:52.993Z,30
2017-04-07T06:15:53.028Z,30
2017-04-07T06:16:53.058Z,30
2017-04-07T06:17:53.101Z,30
2017-04-07T06:18:53.187Z,30
2017-04-07T06:19:53.163Z,35
2017-04-07T06:20:53.204Z,35
2017-04-07T06:21:53.235Z,35
2017-04-07T06:22:53.577Z,30
2017-04-07T06:23:53.617Z,30
2017-04-07T06:24:53.345Z,30
2017-04-07T06:25:53.707Z,30
2017-04-07T06:26:53.411Z,30
2017-04-07T06:27:53.745Z,30
2017-04-07T06:28:53.780Z,30
2017-04-07T06:29:53.512Z,35
2017-04-07T06:30:53.549Z,35
2017-04-07T06:31:53.577Z,40
2017-04-07T06:32:53.612Z,40
2017-04-07T06:33:53.688Z,40
2017-04-07T06:34:53.989Z,40
2017-04-07T06:35:53.767Z,40
2017-04-07T06:36:53.812Z,45
2017-04-07T06:37:53.792Z,45
2017-04-07T06:38:53.840Z,45
2017-04-07T06:39:53.860Z,45
2017-04-07T06:40:54.528Z,45
2017-04-07T06:41:54.532Z,45
2017-04-07T06:42:54.263Z,45
2017-04-07T06:43:53.996Z,40
2017-04-07T06:44:54.032Z,35
2017-04-07T06:45:54.408Z,35
2017-04-07T06:46:54.432Z,30
2017-04-07T06:47:54.138Z,30
2017-04-07T06:48:54.174Z,35
2017-04-07T06:49:54.216Z,40
2017-04-07T06:50:54.847Z,45
2017-04-07T06:51:54.315Z,50
2017-04-07T06:52:54.391Z,50
2017-04-07T06:53:54.398Z,55
2017-04-07T06:54:54.384Z,45
2017-04-07T06:55:54.418Z,45
2017-04-07T06:56:54.764Z,45
2017-04-07T06:57:54.617Z,45
2017-04-07T06:58:54.915Z,40
2017-04-07T06:59:54.558Z,40
2017-04-07T07:00:54.583Z,40
2017-04-07T07:01:54.661Z,45
2017-04-07T07:02:54.697Z,45
2017-04-07T07:03:54.692Z,45
2017-04-07T07:04:54.732Z,50
2017-04-07T07:05:54.787Z,50
2017-04-07T07:06:54.856Z,55
2017-04-07T07:07:54.841Z,60
2017-04-07T07:08:54.866Z,60
2017-04-07T07:09:55.506Z,60
2017-04-07T07:10:54.938Z,60
2017-04-07T07:11:55.279Z,60
2017-04-07T07:12:55.006Z,55
2017-04-07T07:13:55.055Z,55
2017-04-07T07:14:55.078Z,55
2017-04-07T07:15:55.128Z,45
2017-04-07T07:16:55.180Z,50
2017-04-07T07:17:55.223Z,45
2017-04-07T07:18:55.217Z,45
2017-04-07T07:19:55.254Z,50
2017-04-07T07:20:55.600Z,45
2017-04-07T07:21:55.630Z,50
2017-04-07T07:22:55.352Z,55
2017-04-07T07:23:55.391Z,50
2017-04-07T07:24:55.426Z,50
2017-04-07T07:25:55.462Z,55
2017-04-07T07:26:55.494Z,55
2017-04-07T07:27:55.541Z,55
2017-04-07T07:28:55.866Z,50
2017-04-07T07:29:55.896Z,65
2017-04-07T07:30:55.629Z,55
2017-04-07T07:31:55.969Z,60
2017-04-07T07:32:55.714Z,55
2017-04-07T07:33:55.738Z,55
2017-04-07T07:34:55.772Z,50
2017-04-07T07:35:56.110Z,50
2017-04-07T07:36:55.843Z,50
2017-04-07T07:37:55.869Z,50
2017-04-07T07:38:56.211Z,50
2017-04-07T07:39:55.953Z,45
2017-04-07T07:40:55.998Z,50
2017-04-07T07:41:56.352Z,55
2017-04-07T07:42:56.054Z,55
2017-04-07T07:43:56.085Z,50
2017-04-07T07:44:56.115Z,50
2017-04-07T07:45:58.411Z,45
2017-04-07T07:46:59.079Z,45
2017-04-07T07:47:56.232Z,40
2017-04-07T07:48:58.067Z,35
2017-04-07T07:49:57.281Z,40
2017-04-07T07:50:56.323Z,40
2017-04-07T07:51:56.357Z,40
2017-04-07T07:52:56.736Z,40
2017-04-07T07:53:56.724Z,40
2017-04-07T07:54:56.501Z,40
2017-04-07T07:55:56.803Z,40
2017-04-07T07:56:56.835Z,40
2017-04-07T07:57:57.171Z,35
2017-04-07T07:58:56.601Z,35
2017-04-07T07:59:57.267Z,45
2017-04-07T08:00:56.803Z,45
2017-04-07T08:01:57.007Z,45
2017-04-07T08:02:56.745Z,45
2017-04-07T08:03:56.774Z,55
2017-04-07T08:04:57.110Z,50
2017-04-07T08:05:56.848Z,55
2017-04-07T08:06:57.178Z,60
2017-04-07T08:07:56.912Z,55
2017-04-07T08:08:57.256Z,60
2017-04-07T08:09:56.981Z,60
2017-04-07T08:10:57.318Z,70
2017-04-07T08:11:57.362Z,60
2017-04-07T08:12:57.387Z,55
2017-04-07T08:13:57.121Z,55
2017-04-07T08:14:57.153Z,60
2017-04-07T08:15:57.491Z,65
2017-04-07T08:16:57.526Z,70
2017-04-07T08:17:57.265Z,75
2017-04-07T08:18:57.295Z,75
2017-04-07T08:19:57.325Z,70
2017-04-07T08:20:57.362Z,80
2017-04-07T08:21:57.407Z,80
2017-04-07T08:22:57.937Z,80
2017-04-07T08:23:57.646Z,75
2017-04-07T08:24:57.531Z,70
2017-04-07T08:25:57.535Z,80
2017-04-07T08:26:57.579Z,75
2017-04-07T08:27:57.617Z,80
2017-04-07T08:28:57.637Z,80
2017-04-07T08:29:57.976Z,90
2017-04-07T08:30:57.706Z,90
2017-04-07T08:31:57.758Z,85
2017-04-07T08:32:57.778Z,80
2017-04-07T08:33:57.814Z,85
2017-04-07T08:34:57.853Z,70
2017-04-07T08:35:57.886Z,75
2017-04-07T08:36:57.928Z,75
2017-04-07T08:37:57.977Z,75
2017-04-07T08:38:58.300Z,70
2017-04-07T08:39:58.016Z,80
2017-04-07T08:40:58.051Z,75
2017-04-07T08:41:59.302Z,75
2017-04-07T08:42:58.426Z,75
2017-04-07T08:43:58.165Z,75
2017-04-07T08:44:58.190Z,75
2017-04-07T08:45:58.536Z,80
2017-04-07T08:46:58.563Z,90
2017-04-07T08:47:58.297Z,75
2017-04-07T08:48:58.336Z,100
2017-04-07T08:49:58.360Z,100
2017-04-07T08:50:58.436Z,115
2017-04-07T08:51:58.441Z,110
2017-04-07T08:52:59.080Z,100
2017-04-07T08:53:58.630Z,95
2017-04-07T08:54:58.836Z,100
2017-04-07T08:55:58.570Z,105
2017-04-07T08:57:00.355Z,110
2017-04-07T08:57:58.945Z,110
2017-04-07T08:58:58.776Z,125
2017-04-07T08:59:59.055Z,95
2017-04-07T09:00:59.142Z,90
2017-04-07T09:01:58.796Z,90
2017-04-07T09:03:00.090Z,90
2017-04-07T09:03:58.846Z,80
2017-04-07T09:04:58.895Z,115
2017-04-07T09:05:58.937Z,100
2017-04-07T09:06:59.257Z,100
2017-04-07T09:07:59.022Z,95
2017-04-07T09:08:59.031Z,105
2017-04-07T09:09:59.369Z,100
2017-04-07T09:10:59.103Z,90
2017-04-07T09:11:59.447Z,90
2017-04-07T09:12:59.494Z,85
2017-04-07T09:13:59.513Z,105
2017-04-07T09:14:59.230Z,125
2017-04-07T09:15:59.573Z,130
2017-04-07T09:16:59.304Z,135
2017-04-07T09:17:59.350Z,125
2017-04-07T09:18:59.384Z,115
2017-04-07T09:19:59.408Z,120
2017-04-07T09:20:59.443Z,140
2017-04-07T09:21:59.496Z,145
2017-04-07T09:22:59.511Z,125
2017-04-07T09:23:59.548Z,130
2017-04-07T09:24:59.581Z,115
2017-04-07T09:25:59.623Z,110
2017-04-07T09:27:00.131Z,75
2017-04-07T09:27:59.715Z,120
2017-04-07T09:28:59.718Z,100
2017-04-07T09:29:59.753Z,120
2017-04-07T09:30:59.861Z,100
2017-04-07T09:31:59.838Z,120
2017-04-07T09:33:00.168Z,110
2017-04-07T09:33:59.901Z,130
2017-04-07T09:35:00.242Z,130
2017-04-07T09:35:59.962Z,125
2017-04-07T09:37:00.312Z,110
2017-04-07T09:38:00.041Z,135
2017-04-07T09:39:00.366Z,145
2017-04-07T09:40:00.411Z,140
2017-04-07T09:41:00.164Z,125
2017-04-07T09:42:00.478Z,140
2017-04-07T09:43:00.205Z,155
2017-04-07T09:44:00.246Z,150
2017-04-07T09:45:00.276Z,145
2017-04-07T09:46:00.677Z,120
2017-04-07T09:47:00.659Z,120
2017-04-07T09:48:01.002Z,90
2017-04-07T09:49:00.430Z,105
2017-04-07T09:50:00.466Z,105
2017-04-07T09:51:00.786Z,110
2017-04-07T09:52:00.524Z,110
2017-04-07T09:53:00.551Z,120
2017-04-07T09:54:00.603Z,125
2017-04-07T09:55:00.627Z,150
2017-04-07T09:56:00.660Z,165
2017-04-07T09:57:00.702Z,165
2017-04-07T09:58:01.048Z,125
2017-04-07T09:59:00.867Z,135
2017-04-07T10:00:01.104Z,145
2017-04-07T10:01:00.975Z,190
2017-04-07T10:02:01.479Z,200
2017-04-07T10:03:01.046Z,175
2017-04-07T10:04:01.414Z,180
2017-04-07T10:05:01.033Z,175
2017-04-07T10:06:01.047Z,210
2017-04-07T10:07:01.056Z,205
2017-04-07T10:08:01.095Z,205
2017-04-07T10:09:01.115Z,165
2017-04-07T10:10:01.169Z,175
2017-04-07T10:11:01.494Z,195
2017-04-07T10:12:01.233Z,195
2017-04-07T10:13:01.260Z,185
2017-04-07T10:14:01.598Z,175
2017-04-07T10:15:01.627Z,180
2017-04-07T10:16:01.506Z,185
2017-04-07T10:17:01.505Z,185
2017-04-07T10:18:02.090Z,185
2017-04-07T10:19:01.468Z,210
2017-04-07T10:20:01.504Z,225
2017-04-07T10:21:01.941Z,275
2017-04-07T10:22:01.921Z,260
2017-04-07T10:23:01.611Z,235
2017-04-07T10:24:01.645Z,230
2017-04-07T10:25:01.716Z,210
2017-04-07T10:26:01.742Z,190
2017-04-07T10:27:01.890Z,155
2017-04-07T10:28:01.801Z,145
2017-04-07T10:29:05.453Z,125
2017-04-07T10:30:02.816Z,125
2017-04-07T10:31:02.225Z,135
2017-04-07T10:32:02.149Z,125
2017-04-07T10:33:01.976Z,130
2017-04-07T10:34:02.011Z,135
2017-04-07T10:35:03.122Z,170
2017-04-07T10:36:02.988Z,185
2017-04-07T10:37:02.721Z,180
2017-04-07T10:38:02.141Z,180
2017-04-07T10:39:02.187Z,160
2017-04-07T10:40:02.216Z,170
2017-04-07T10:41:02.553Z,150
2017-04-07T10:42:03.436Z,170
2017-04-07T10:43:02.433Z,165
2017-04-07T10:44:02.448Z,185
2017-04-07T10:45:02.693Z,165
2017-04-07T10:46:03.196Z,155
2017-04-07T10:47:02.461Z,140
2017-04-07T10:48:02.496Z,115
2017-04-07T10:49:02.535Z,110
2017-04-07T10:50:02.875Z,100
2017-04-07T10:51:02.907Z,145
2017-04-07T10:52:02.635Z,140
2017-04-07T10:53:02.671Z,125
2017-04-07T10:54:02.703Z,120
2017-04-07T10:55:02.770Z,135
2017-04-07T10:56:03.107Z,135
2017-04-07T10:57:02.817Z,145
2017-04-07T10:58:02.848Z,130
2017-04-07T10:59:02.886Z,115
2017-04-07T11:00:02.926Z,100
2017-04-07T11:01:03.045Z,105
2017-04-07T11:02:02.994Z,115
2017-04-07T11:03:03.033Z,120
2017-04-07T11:04:03.111Z,140
2017-04-07T11:05:03.130Z,155
2017-04-07T11:06:03.455Z,165
2017-04-07T11:07:03.170Z,185
2017-04-07T11:08:03.234Z,145
2017-04-07T11:09:03.291Z,120
2017-04-07T11:10:03.881Z,145
2017-04-07T11:11:03.319Z,130
2017-04-07T11:12:03.644Z,105
2017-04-07T11:13:03.380Z,105
2017-04-07T11:14:04.022Z,95
2017-04-07T11:15:03.749Z,100
2017-04-07T11:16:04.098Z,110
2017-04-07T11:17:03.521Z,120
2017-04-07T11:18:03.864Z,125
2017-04-07T11:19:03.893Z,120
2017-04-07T11:20:03.625Z,120
2017-04-07T11:21:03.971Z,110
2017-04-07T11:22:04.005Z,145
2017-04-07T11:23:04.038Z,155
2017-04-07T11:24:03.798Z,145
2017-04-07T11:25:03.808Z,140
2017-04-07T11:26:03.838Z,105
2017-04-07T11:27:04.204Z,105
2017-04-07T11:28:03.904Z,110
2017-04-07T11:29:04.242Z,95
2017-04-07T11:30:03.970Z,80
2017-04-07T11:31:04.013Z,95
2017-04-07T11:32:04.056Z,140
2017-04-07T11:33:04.091Z,130
2017-04-07T11:34:04.457Z,175
2017-04-07T11:35:04.463Z,130
2017-04-07T11:36:04.493Z,140
2017-04-07T11:37:04.533Z,150
2017-04-07T11:38:04.259Z,130
2017-04-07T11:39:04.292Z,105
2017-04-07T11:40:04.329Z,100
2017-04-07T11:41:04.672Z,95
2017-04-07T11:42:04.394Z,90
2017-04-07T11:43:04.435Z,90
2017-04-07T11:44:04.474Z,95
2017-04-07T11:45:04.809Z,90
2017-04-07T11:46:04.841Z,115
2017-04-07T11:47:04.893Z,120
2017-04-07T11:48:04.622Z,145
2017-04-07T11:49:04.644Z,125
2017-04-07T11:50:04.985Z,160
2017-04-07T11:51:04.731Z,175
2017-04-07T11:52:04.764Z,135
2017-04-07T11:53:05.095Z,110
2017-04-07T11:54:04.824Z,135
2017-04-07T11:55:05.159Z,115
2017-04-07T11:56:04.891Z,125
2017-04-07T11:57:04.939Z,135
2017-04-07T11:58:05.025Z,135
2017-04-07T11:59:05.306Z,125
2017-04-07T12:00:05.337Z,125
2017-04-07T12:01:05.387Z,140
2017-04-07T12:02:05.120Z,140
2017-04-07T12:03:05.471Z,115
2017-04-07T12:04:05.493Z,130
2017-04-07T12:05:05.220Z,130
2017-04-07T12:06:05.251Z,110
2017-04-07T12:07:05.590Z,110
2017-04-07T12:08:05.318Z,95
2017-04-07T12:09:05.393Z,90
2017-04-07T12:10:06.043Z,90
2017-04-07T12:11:05.428Z,100
2017-04-07T12:12:05.471Z,85
2017-04-07T12:13:06.097Z,90
2017-04-07T12:14:05.859Z,95
2017-04-07T12:15:05.565Z,105
2017-04-07T12:16:05.912Z,95
2017-04-07T12:17:05.659Z,85
2017-04-07T12:18:05.672Z,100
2017-04-07T12:19:05.712Z,90
2017-04-07T12:20:05.753Z,90
2017-04-07T12:21:05.780Z,85
2017-04-07T12:22:06.122Z,80
2017-04-07T12:23:05.856Z,70
2017-04-07T12:24:06.496Z,80
2017-04-07T12:25:06.228Z,90
2017-04-07T12:26:06.253Z,80
2017-04-07T12:27:06.287Z,90
2017-04-07T12:28:06.325Z,85
2017-04-07T12:29:06.367Z,85
2017-04-07T12:30:06.403Z,100
2017-04-07T12:31:06.433Z,85
2017-04-07T12:32:06.474Z,80
2017-04-07T12:33:06.511Z,90
2017-04-07T12:34:06.548Z,105
2017-04-07T12:35:06.284Z,105
2017-04-07T12:36:07.129Z,110
2017-04-07T12:37:06.353Z,100
2017-04-07T12:38:06.683Z,120
2017-04-07T12:39:06.728Z,110
2017-04-07T12:40:07.076Z,105
2017-04-07T12:41:06.487Z,95
2017-04-07T12:42:07.126Z,110
2017-04-07T12:43:06.863Z,105
2017-04-07T12:44:06.902Z,95
2017-04-07T12:45:06.632Z,100
2017-04-07T12:46:06.966Z,80
2017-04-07T12:47:06.697Z,75
2017-04-07T12:48:07.342Z,80
2017-04-07T12:49:07.080Z,85
2017-04-07T12:50:07.108Z,75
2017-04-07T12:51:06.842Z,65
2017-04-07T12:52:07.477Z,60
2017-04-07T12:53:07.207Z,55
2017-04-07T12:54:07.248Z,55
2017-04-07T12:55:06.989Z,65
2017-04-07T12:56:07.633Z,75
2017-04-07T12:57:07.351Z,105
2017-04-07T12:58:07.390Z,75
2017-04-07T12:59:07.425Z,65
2017-04-07T13:00:07.464Z,65
2017-04-07T13:01:07.496Z,75
2017-04-07T13:02:07.225Z,85
2017-04-07T13:03:07.528Z,90
2017-04-07T13:04:07.606Z,95
2017-04-07T13:05:07.643Z,75
2017-04-07T13:06:07.749Z,80
2017-04-07T13:07:08.020Z,100
2017-04-07T13:08:07.764Z,95
2017-04-07T13:09:07.777Z,85
2017-04-07T13:10:07.806Z,75
2017-04-07T13:11:08.151Z,70
2017-04-07T13:12:07.880Z,75
2017-04-07T13:13:07.920Z,80
2017-04-07T13:14:07.645Z,80
2017-04-07T13:15:07.700Z,80
2017-04-07T13:16:07.727Z,80
2017-04-07T13:17:08.055Z,80
2017-04-07T13:18:07.796Z,85
2017-04-07T13:19:08.129Z,95
2017-04-07T13:20:07.857Z,90
2017-04-07T13:21:07.897Z,85
2017-04-07T13:22:07.929Z,75
2017-04-07T13:23:07.974Z,70
2017-04-07T13:24:08.314Z,70
2017-04-07T13:25:08.032Z,65
2017-04-07T13:26:08.686Z,65
2017-04-07T13:27:08.419Z,75
2017-04-07T13:28:08.143Z,80
2017-04-07T13:29:08.171Z,75
2017-04-07T13:30:08.525Z,70
2017-04-07T13:31:08.556Z,70
2017-04-07T13:32:08.300Z,75
2017-04-07T13:33:08.622Z,90
2017-04-07T13:34:08.665Z,95
2017-04-07T13:35:08.395Z,100
2017-04-07T13:36:09.040Z,115
2017-04-07T13:37:08.764Z,110
2017-04-07T13:38:08.500Z,120
2017-04-07T13:39:08.836Z,110
2017-04-07T13:40:08.569Z,95
2017-04-07T13:41:09.218Z,90
2017-04-07T13:42:08.942Z,85
2017-04-07T13:43:08.989Z,90
2017-04-07T13:44:09.021Z,90
2017-04-07T13:45:08.746Z,90
2017-04-07T13:46:08.796Z,85
2017-04-07T13:47:08.816Z,90
2017-04-07T13:48:09.166Z,95
2017-04-07T13:49:08.892Z,95
2017-04-07T13:50:08.924Z,90
2017-04-07T13:51:09.290Z,85
2017-04-07T13:52:08.993Z,90
2017-04-07T13:53:09.028Z,90
2017-04-07T13:54:09.379Z,80
2017-04-07T13:55:09.714Z,75
2017-04-07T13:56:09.148Z,75
2017-04-07T13:57:09.483Z,75
2017-04-07T13:58:09.205Z,65
2017-04-07T13:59:09.542Z,70
2017-04-07T14:00:09.579Z,80
2017-04-07T14:01:09.933Z,90
2017-04-07T14:02:09.672Z,85
2017-04-07T14:03:10.010Z,95
2017-04-07T14:04:10.030Z,85
2017-04-07T14:05:09.468Z,80
2017-04-07T14:06:09.815Z,70
2017-04-07T14:07:09.833Z,50
2017-04-07T14:08:09.572Z,45
2017-04-07T14:09:10.207Z,45
2017-04-07T14:10:09.637Z,45
2017-04-07T14:11:09.671Z,45
2017-04-07T14:12:10.038Z,45
2017-04-07T14:13:10.055Z,55
2017-04-07T14:14:09.777Z,55
2017-04-07T14:15:10.121Z,45
2017-04-07T14:16:09.841Z,45
2017-04-07T14:17:10.209Z,35
2017-04-07T14:18:09.926Z,40
2017-04-07T14:19:10.566Z,40